sensor_id;sensor_type;location;lat;lon;timestamp;pressure;altitude;pressure_sealevel;temperature;humidity
25560;BME280;13450;49.374;8.584;2024-02-26T00:02:10;98550.81;;;8.03;nan
25560;BME280;13450;49.374;8.584;2024-02-26T00:04:39;98557.38;;;8.01;nan
25560;BME280;13450;49.374;8.584;2024-02-26T00:07:04;98549.97;;;8.03;nan
25560;BME280;13450;49.374;8.584;2024-02-26T00:09:30;98547.94;;;8.05;nan
25560;BME280;13450;49.374;8.584;2024-02-26T00:11:55;98553.25;;;8.05;nan
25560;BME280;13450;49.374;8.584;2024-02-26T00:14:21;98553.47;;;8.03;nan
25560;BME280;13450;49.374;8.584;2024-02-26T00:16:46;98561.66;;;8.02;nan
25560;BME280;13450;49.374;8.584;2024-02-26T00:19:11;98570.69;;;8.01;nan
25560;BME280;13450;49.374;8.584;2024-02-26T00:21:43;98568.03;;;8.01;nan
25560;BME280;13450;49.374;8.584;2024-02-26T00:24:08;98572.31;;;8.02;nan
25560;BME280;13450;49.374;8.584;2024-02-26T00:26:34;98580.69;;;8.05;nan
25560;BME280;13450;49.374;8.584;2024-02-26T00:29:01;98592.19;;;8.06;nan
25560;BME280;13450;49.374;8.584;2024-02-26T00:31:29;98583.34;;;8.05;nan
25560;BME280;13450;49.374;8.584;2024-02-26T00:33:54;98583.16;;;8.07;nan
25560;BME280;13450;49.374;8.584;2024-02-26T00:36:19;98584.19;;;8.06;nan
25560;BME280;13450;49.374;8.584;2024-02-26T00:38:45;98590.13;;;8.08;nan
25560;BME280;13450;49.374;8.584;2024-02-26T00:41:18;98590.13;;;8.08;nan
25560;BME280;13450;49.374;8.584;2024-02-26T00:43:44;98597.09;;;8.09;nan
25560;BME280;13450;49.374;8.584;2024-02-26T00:46:09;98593.38;;;8.10;nan
25560;BME280;13450;49.374;8.584;2024-02-26T00:48:35;98589.09;;;8.09;nan
25560;BME280;13450;49.374;8.584;2024-02-26T00:51:00;98586.44;;;8.09;nan
25560;BME280;13450;49.374;8.584;2024-02-26T00:53:26;98597.09;;;8.09;nan
25560;BME280;13450;49.374;8.584;2024-02-26T00:55:51;98596.25;;;8.08;nan
25560;BME280;13450;49.374;8.584;2024-02-26T00:58:16;98593.81;;;8.07;nan
25560;BME280;13450;49.374;8.584;2024-02-26T01:00:42;98601.78;;;8.07;nan
25560;BME280;13450;49.374;8.584;2024-02-26T01:03:07;98611.03;;;8.04;nan
25560;BME280;13450;49.374;8.584;2024-02-26T01:05:33;98609.63;;;8.02;nan
25560;BME280;13450;49.374;8.584;2024-02-26T01:07:58;98619.22;;;8.03;nan
25560;BME280;13450;49.374;8.584;2024-02-26T01:10:23;98600.00;;;8.01;nan
25560;BME280;13450;49.374;8.584;2024-02-26T01:12:51;98606.56;;;7.98;nan
25560;BME280;13450;49.374;8.584;2024-02-26T01:15:17;98604.31;;;7.95;nan
25560;BME280;13450;49.374;8.584;2024-02-26T01:17:44;98610.09;;;7.92;nan
25560;BME280;13450;49.374;8.584;2024-02-26T01:20:09;98619.09;;;7.91;nan
25560;BME280;13450;49.374;8.584;2024-02-26T01:22:35;98618.50;;;7.89;nan
25560;BME280;13450;49.374;8.584;2024-02-26T01:25:02;98623.44;;;7.85;nan
25560;BME280;13450;49.374;8.584;2024-02-26T01:27:28;98629.97;;;7.82;nan
25560;BME280;13450;49.374;8.584;2024-02-26T01:29:53;98635.94;;;7.78;nan
25560;BME280;13450;49.374;8.584;2024-02-26T01:32:19;98637.00;;;7.77;nan
25560;BME280;13450;49.374;8.584;2024-02-26T01:34:44;98638.44;;;7.72;nan
25560;BME280;13450;49.374;8.584;2024-02-26T01:37:10;98636.19;;;7.69;nan
25560;BME280;13450;49.374;8.584;2024-02-26T01:39:35;98643.56;;;7.67;nan
25560;BME280;13450;49.374;8.584;2024-02-26T01:42:01;98637.84;;;7.64;nan
25560;BME280;13450;49.374;8.584;2024-02-26T01:44:26;98639.50;;;7.58;nan
25560;BME280;13450;49.374;8.584;2024-02-26T01:46:52;98642.16;;;7.58;nan
25560;BME280;13450;49.374;8.584;2024-02-26T01:49:18;98644.22;;;7.56;nan
25560;BME280;13450;49.374;8.584;2024-02-26T01:51:45;98636.63;;;7.53;nan
25560;BME280;13450;49.374;8.584;2024-02-26T01:54:10;98637.47;;;7.46;nan
25560;BME280;13450;49.374;8.584;2024-02-26T01:56:39;98643.63;;;7.47;nan
25560;BME280;13450;49.374;8.584;2024-02-26T01:59:05;98652.22;;;7.42;nan
25560;BME280;13450;49.374;8.584;2024-02-26T02:01:33;98651.00;;;7.38;nan
25560;BME280;13450;49.374;8.584;2024-02-26T02:03:59;98659.41;;;7.35;nan
25560;BME280;13450;49.374;8.584;2024-02-26T02:06:25;98641.19;;;7.32;nan
25560;BME280;13450;49.374;8.584;2024-02-26T02:08:52;98653.28;;;7.28;nan
25560;BME280;13450;49.374;8.584;2024-02-26T02:11:20;98650.00;;;7.26;nan
25560;BME280;13450;49.374;8.584;2024-02-26T02:13:46;98651.44;;;7.22;nan
25560;BME280;13450;49.374;8.584;2024-02-26T02:16:11;98646.53;;;7.18;nan
25560;BME280;13450;49.374;8.584;2024-02-26T02:18:37;98656.75;;;7.15;nan
25560;BME280;13450;49.374;8.584;2024-02-26T02:21:02;98651.88;;;7.12;nan
25560;BME280;13450;49.374;8.584;2024-02-26T02:23:28;98651.44;;;7.08;nan
25560;BME280;13450;49.374;8.584;2024-02-26T02:25:56;98650.84;;;7.06;nan
25560;BME280;13450;49.374;8.584;2024-02-26T02:28:23;98651.06;;;7.04;nan
25560;BME280;13450;49.374;8.584;2024-02-26T02:30:49;98652.91;;;7.04;nan
25560;BME280;13450;49.374;8.584;2024-02-26T02:33:15;98658.44;;;7.02;nan
25560;BME280;13450;49.374;8.584;2024-02-26T02:35:41;98654.34;;;7.00;nan
25560;BME280;13450;49.374;8.584;2024-02-26T02:38:06;98659.66;;;7.00;nan
25560;BME280;13450;49.374;8.584;2024-02-26T02:40:31;98654.75;;;6.97;nan
25560;BME280;13450;49.374;8.584;2024-02-26T02:42:57;98654.75;;;6.97;nan
25560;BME280;13450;49.374;8.584;2024-02-26T02:45:22;98656.56;;;6.96;nan
25560;BME280;13450;49.374;8.584;2024-02-26T02:47:47;98653.13;;;6.96;nan
25560;BME280;13450;49.374;8.584;2024-02-26T02:50:15;98651.44;;;6.94;nan
25560;BME280;13450;49.374;8.584;2024-02-26T02:52:41;98649.81;;;6.93;nan
25560;BME280;13450;49.374;8.584;2024-02-26T02:55:09;98642.88;;;6.92;nan
25560;BME280;13450;49.374;8.584;2024-02-26T02:57:34;98645.72;;;6.91;nan
25560;BME280;13450;49.374;8.584;2024-02-26T02:59:59;98651.88;;;6.91;nan
25560;BME280;13450;49.374;8.584;2024-02-26T03:02:27;98657.59;;;6.88;nan
25560;BME280;13450;49.374;8.584;2024-02-26T03:04:52;98655.13;;;6.87;nan
25560;BME280;13450;49.374;8.584;2024-02-26T03:07:18;98654.34;;;6.86;nan
25560;BME280;13450;49.374;8.584;2024-02-26T03:09:45;98660.66;;;6.85;nan
25560;BME280;13450;49.374;8.584;2024-02-26T03:12:11;98660.06;;;6.83;nan
25560;BME280;13450;49.374;8.584;2024-02-26T03:14:36;98652.09;;;6.83;nan
25560;BME280;13450;49.374;8.584;2024-02-26T03:17:01;98661.28;;;6.80;nan
25560;BME280;13450;49.374;8.584;2024-02-26T03:19:27;98659.66;;;6.79;nan
25560;BME280;13450;49.374;8.584;2024-02-26T03:21:52;98663.13;;;6.80;nan
25560;BME280;13450;49.374;8.584;2024-02-26T03:24:17;98663.75;;;6.82;nan
25560;BME280;13450;49.374;8.584;2024-02-26T03:26:45;98668.03;;;6.83;nan
25560;BME280;13450;49.374;8.584;2024-02-26T03:29:13;98664.53;;;6.83;nan
25560;BME280;13450;49.374;8.584;2024-02-26T03:31:38;98668.03;;;6.83;nan
25560;BME280;13450;49.374;8.584;2024-02-26T03:34:06;98672.72;;;6.81;nan
25560;BME280;13450;49.374;8.584;2024-02-26T03:36:31;98663.53;;;6.77;nan
25560;BME280;13450;49.374;8.584;2024-02-26T03:38:57;98671.50;;;6.77;nan
25560;BME280;13450;49.374;8.584;2024-02-26T03:41:22;98660.25;;;6.68;nan
25560;BME280;13450;49.374;8.584;2024-02-26T03:43:47;98653.50;;;6.65;nan
25560;BME280;13450;49.374;8.584;2024-02-26T03:46:13;98654.09;;;6.61;nan
25560;BME280;13450;49.374;8.584;2024-02-26T03:48:41;98646.34;;;6.59;nan
25560;BME280;13450;49.374;8.584;2024-02-26T03:51:08;98643.47;;;6.54;nan
25560;BME280;13450;49.374;8.584;2024-02-26T03:53:34;98644.91;;;6.50;nan
25560;BME280;13450;49.374;8.584;2024-02-26T03:56:05;98643.69;;;6.46;nan
25560;BME280;13450;49.374;8.584;2024-02-26T03:58:33;98641.41;;;6.43;nan
25560;BME280;13450;49.374;8.584;2024-02-26T04:00:59;98646.09;;;6.40;nan
25560;BME280;13450;49.374;8.584;2024-02-26T04:03:25;98633.22;;;6.37;nan
25560;BME280;13450;49.374;8.584;2024-02-26T04:05:50;98637.53;;;6.38;nan
25560;BME280;13450;49.374;8.584;2024-02-26T04:08:16;98627.91;;;6.37;nan
25560;BME280;13450;49.374;8.584;2024-02-26T04:10:41;98627.91;;;6.37;nan
25560;BME280;13450;49.374;8.584;2024-02-26T04:13:07;98626.47;;;6.35;nan
25560;BME280;13450;49.374;8.584;2024-02-26T04:15:32;98621.97;;;6.35;nan
25560;BME280;13450;49.374;8.584;2024-02-26T04:17:58;98617.09;;;6.32;nan
25560;BME280;13450;49.374;8.584;2024-02-26T04:20:23;98611.78;;;6.32;nan
25560;BME280;13450;49.374;8.584;2024-02-26T04:22:48;98611.78;;;6.32;nan
25560;BME280;13450;49.374;8.584;2024-02-26T04:25:14;98604.78;;;6.31;nan
25560;BME280;13450;49.374;8.584;2024-02-26T04:27:41;98603.16;;;6.30;nan
25560;BME280;13450;49.374;8.584;2024-02-26T04:30:07;98611.13;;;6.30;nan
25560;BME280;13450;49.374;8.584;2024-02-26T04:32:38;98603.38;;;6.28;nan
25560;BME280;13450;49.374;8.584;2024-02-26T04:35:06;98600.09;;;6.26;nan
25560;BME280;13450;49.374;8.584;2024-02-26T04:37:33;98600.72;;;6.28;nan
25560;BME280;13450;49.374;8.584;2024-02-26T04:40:01;98605.22;;;6.28;nan
25560;BME280;13450;49.374;8.584;2024-02-26T04:42:27;98598.06;;;6.28;nan
25560;BME280;13450;49.374;8.584;2024-02-26T04:44:54;98600.72;;;6.28;nan
25560;BME280;13450;49.374;8.584;2024-02-26T04:47:20;98592.53;;;6.30;nan
25560;BME280;13450;49.374;8.584;2024-02-26T04:49:47;98594.16;;;6.31;nan
25560;BME280;13450;49.374;8.584;2024-02-26T04:52:15;98591.13;;;6.34;nan
25560;BME280;13450;49.374;8.584;2024-02-26T04:54:40;98596.25;;;6.36;nan
25560;BME280;13450;49.374;8.584;2024-02-26T04:57:08;98593.38;;;6.37;nan
25560;BME280;13450;49.374;8.584;2024-02-26T04:59:33;98591.75;;;6.36;nan
25560;BME280;13450;49.374;8.584;2024-02-26T05:01:59;98590.09;;;6.35;nan
25560;BME280;13450;49.374;8.584;2024-02-26T05:04:24;98597.88;;;6.37;nan
25560;BME280;13450;49.374;8.584;2024-02-26T05:06:49;98595.22;;;6.37;nan
25560;BME280;13450;49.374;8.584;2024-02-26T05:09:17;98604.00;;;6.37;nan
25560;BME280;13450;49.374;8.584;2024-02-26T05:11:45;98598.50;;;6.39;nan
25560;BME280;13450;49.374;8.584;2024-02-26T05:14:10;98607.25;;;6.39;nan
25560;BME280;13450;49.374;8.584;2024-02-26T05:16:36;98600.94;;;6.40;nan
25560;BME280;13450;49.374;8.584;2024-02-26T05:19:04;98605.25;;;6.41;nan
25560;BME280;13450;49.374;8.584;2024-02-26T05:21:30;98615.44;;;6.45;nan
25560;BME280;13450;49.374;8.584;2024-02-26T05:23:56;98607.28;;;6.46;nan
25560;BME280;13450;49.374;8.584;2024-02-26T05:26:22;98605.84;;;6.44;nan
25560;BME280;13450;49.374;8.584;2024-02-26T05:28:48;98616.69;;;6.49;nan
25560;BME280;13450;49.374;8.584;2024-02-26T05:31:13;98612.38;;;6.48;nan
25560;BME280;13450;49.374;8.584;2024-02-26T05:33:41;98608.50;;;6.50;nan
25560;BME280;13450;49.374;8.584;2024-02-26T05:36:07;98621.59;;;6.52;nan
25560;BME280;13450;49.374;8.584;2024-02-26T05:38:32;98613.22;;;6.55;nan
25560;BME280;13450;49.374;8.584;2024-02-26T05:40:58;98615.88;;;6.55;nan
25560;BME280;13450;49.374;8.584;2024-02-26T05:43:28;98624.66;;;6.56;nan
25560;BME280;13450;49.374;8.584;2024-02-26T05:45:56;98624.47;;;6.57;nan
25560;BME280;13450;49.374;8.584;2024-02-26T05:48:21;98617.50;;;6.56;nan
25560;BME280;13450;49.374;8.584;2024-02-26T05:50:49;98629.78;;;6.57;nan
25560;BME280;13450;49.374;8.584;2024-02-26T05:53:14;98629.78;;;6.57;nan
25560;BME280;13450;49.374;8.584;2024-02-26T05:55:42;98635.09;;;6.57;nan
25560;BME280;13450;49.374;8.584;2024-02-26T05:58:09;98644.09;;;6.56;nan
25560;BME280;13450;49.374;8.584;2024-02-26T06:00:37;98645.72;;;6.57;nan
25560;BME280;13450;49.374;8.584;2024-02-26T06:03:02;98649.41;;;6.56;nan
25560;BME280;13450;49.374;8.584;2024-02-26T06:05:28;98648.56;;;6.56;nan
25560;BME280;13450;49.374;8.584;2024-02-26T06:07:53;98654.72;;;6.56;nan
25560;BME280;13450;49.374;8.584;2024-02-26T06:10:18;98664.53;;;6.56;nan
25560;BME280;13450;49.374;8.584;2024-02-26T06:12:46;98672.69;;;6.54;nan
25560;BME280;13450;49.374;8.584;2024-02-26T06:15:12;98675.78;;;6.51;nan
25560;BME280;13450;49.374;8.584;2024-02-26T06:17:37;98681.47;;;6.48;nan
25560;BME280;13450;49.374;8.584;2024-02-26T06:20:02;98692.09;;;6.48;nan
25560;BME280;13450;49.374;8.584;2024-02-26T06:22:30;98697.81;;;6.45;nan
25560;BME280;13450;49.374;8.584;2024-02-26T06:24:55;98704.16;;;6.44;nan
25560;BME280;13450;49.374;8.584;2024-02-26T06:27:20;98704.16;;;6.44;nan
25560;BME280;13450;49.374;8.584;2024-02-26T06:29:49;98710.50;;;6.43;nan
25560;BME280;13450;49.374;8.584;2024-02-26T06:32:15;98715.19;;;6.40;nan
25560;BME280;13450;49.374;8.584;2024-02-26T06:34:40;98718.06;;;6.39;nan
25560;BME280;13450;49.374;8.584;2024-02-26T06:37:09;98717.22;;;6.38;nan
25560;BME280;13450;49.374;8.584;2024-02-26T06:39:34;98725.38;;;6.37;nan
25560;BME280;13450;49.374;8.584;2024-02-26T06:42:03;98715.97;;;6.34;nan
25560;BME280;13450;49.374;8.584;2024-02-26T06:44:31;98728.25;;;6.35;nan
25560;BME280;13450;49.374;8.584;2024-02-26T06:47:00;98729.28;;;6.34;nan
25560;BME280;13450;49.374;8.584;2024-02-26T06:49:25;98729.28;;;6.34;nan
25560;BME280;13450;49.374;8.584;2024-02-26T06:51:51;98730.28;;;6.33;nan
25560;BME280;13450;49.374;8.584;2024-02-26T06:54:19;98741.72;;;6.34;nan
25560;BME280;13450;49.374;8.584;2024-02-26T06:56:44;98735.81;;;6.38;nan
25560;BME280;13450;49.374;8.584;2024-02-26T06:59:10;98733.78;;;6.40;nan
25560;BME280;13450;49.374;8.584;2024-02-26T07:01:35;98737.66;;;6.45;nan
25560;BME280;13450;49.374;8.584;2024-02-26T07:04:03;98741.75;;;6.47;nan
25560;BME280;13450;49.374;8.584;2024-02-26T07:06:28;98737.69;;;6.51;nan
25560;BME280;13450;49.374;8.584;2024-02-26T07:08:53;98750.41;;;6.56;nan
25560;BME280;13450;49.374;8.584;2024-02-26T07:11:19;98744.69;;;6.59;nan
25560;BME280;13450;49.374;8.584;2024-02-26T07:13:45;98752.88;;;6.64;nan
25560;BME280;13450;49.374;8.584;2024-02-26T07:16:11;98757.16;;;6.65;nan
25560;BME280;13450;49.374;8.584;2024-02-26T07:18:36;98749.19;;;6.65;nan
25560;BME280;13450;49.374;8.584;2024-02-26T07:21:02;98756.56;;;6.70;nan
25560;BME280;13450;49.374;8.584;2024-02-26T07:23:28;98753.69;;;6.72;nan
25560;BME280;13450;49.374;8.584;2024-02-26T07:25:54;98757.19;;;6.72;nan
25560;BME280;13450;49.374;8.584;2024-02-26T07:28:19;98766.78;;;6.73;nan
25560;BME280;13450;49.374;8.584;2024-02-26T07:30:44;98762.31;;;6.74;nan
25560;BME280;13450;49.374;8.584;2024-02-26T07:33:12;98759.25;;;6.77;nan
25560;BME280;13450;49.374;8.584;2024-02-26T07:35:38;98761.47;;;6.80;nan
25560;BME280;13450;49.374;8.584;2024-02-26T07:38:04;98764.34;;;6.85;nan
25560;BME280;13450;49.374;8.584;2024-02-26T07:40:29;98758.22;;;6.85;nan
25560;BME280;13450;49.374;8.584;2024-02-26T07:42:58;98760.69;;;6.86;nan
25560;BME280;13450;49.374;8.584;2024-02-26T07:45:23;98762.13;;;6.89;nan
25560;BME280;13450;49.374;8.584;2024-02-26T07:47:49;98761.31;;;6.95;nan
25560;BME280;13450;49.374;8.584;2024-02-26T07:50:14;98753.13;;;6.97;nan
25560;BME280;13450;49.374;8.584;2024-02-26T07:52:42;98756.19;;;7.00;nan
25560;BME280;13450;49.374;8.584;2024-02-26T07:55:12;98760.28;;;7.03;nan
25560;BME280;13450;49.374;8.584;2024-02-26T07:57:37;98768.91;;;7.05;nan
25560;BME280;13450;49.374;8.584;2024-02-26T08:00:04;98755.41;;;7.06;nan
25560;BME280;13450;49.374;8.584;2024-02-26T08:02:32;98758.66;;;7.09;nan
25560;BME280;13450;49.374;8.584;2024-02-26T08:04:59;98758.28;;;7.12;nan
25560;BME280;13450;49.374;8.584;2024-02-26T08:07:24;98757.84;;;7.22;nan
25560;BME280;13450;49.374;8.584;2024-02-26T08:09:49;98762.78;;;7.25;nan
25560;BME280;13450;49.374;8.584;2024-02-26T08:12:19;98764.63;;;7.31;nan
25560;BME280;13450;49.374;8.584;2024-02-26T08:14:45;98761.13;;;7.37;nan
25560;BME280;13450;49.374;8.584;2024-02-26T08:17:10;98764.84;;;7.43;nan
25560;BME280;13450;49.374;8.584;2024-02-26T08:19:35;98768.72;;;7.54;nan
25560;BME280;13450;49.374;8.584;2024-02-26T08:22:01;98780.34;;;7.66;nan
25560;BME280;13450;49.374;8.584;2024-02-26T08:24:26;98778.91;;;7.77;nan
25560;BME280;13450;49.374;8.584;2024-02-26T08:26:52;98785.25;;;7.83;nan
25560;BME280;13450;49.374;8.584;2024-02-26T08:29:17;98782.38;;;7.84;nan
25560;BME280;13450;49.374;8.584;2024-02-26T08:31:42;98777.06;;;7.91;nan
25560;BME280;13450;49.374;8.584;2024-02-26T08:34:08;98775.81;;;7.94;nan
25560;BME280;13450;49.374;8.584;2024-02-26T08:36:33;98768.84;;;7.93;nan
25560;BME280;13450;49.374;8.584;2024-02-26T08:38:59;98775.59;;;7.95;nan
25560;BME280;13450;49.374;8.584;2024-02-26T08:41:25;98770.47;;;8.01;nan
25560;BME280;13450;49.374;8.584;2024-02-26T08:43:50;98771.69;;;8.05;nan
25560;BME280;13450;49.374;8.584;2024-02-26T08:46:15;98763.06;;;8.09;nan
25560;BME280;13450;49.374;8.584;2024-02-26T08:48:41;98771.03;;;8.16;nan
25560;BME280;13450;49.374;8.584;2024-02-26T08:51:09;98776.56;;;8.21;nan
25560;BME280;13450;49.374;8.584;2024-02-26T08:53:35;98780.66;;;8.24;nan
25560;BME280;13450;49.374;8.584;2024-02-26T08:56:00;98796.03;;;8.22;nan
25560;BME280;13450;49.374;8.584;2024-02-26T08:58:27;98796.66;;;8.24;nan
25560;BME280;13450;49.374;8.584;2024-02-26T09:00:53;98797.03;;;8.28;nan
25560;BME280;13450;49.374;8.584;2024-02-26T09:03:21;98791.72;;;8.28;nan
25560;BME280;13450;49.374;8.584;2024-02-26T09:05:46;98795.97;;;8.35;nan
25560;BME280;13450;49.374;8.584;2024-02-26T09:08:11;98805.41;;;8.38;nan
25560;BME280;13450;49.374;8.584;2024-02-26T09:10:38;98804.38;;;8.39;nan
25560;BME280;13450;49.374;8.584;2024-02-26T09:13:04;98804.81;;;8.36;nan
25560;BME280;13450;49.374;8.584;2024-02-26T09:15:29;98799.47;;;8.36;nan
25560;BME280;13450;49.374;8.584;2024-02-26T09:17:54;98803.97;;;8.35;nan
25560;BME280;13450;49.374;8.584;2024-02-26T09:20:20;98799.03;;;8.39;nan
25560;BME280;13450;49.374;8.584;2024-02-26T09:22:46;98800.69;;;8.40;nan
25560;BME280;13450;49.374;8.584;2024-02-26T09:25:12;98799.25;;;8.44;nan
25560;BME280;13450;49.374;8.584;2024-02-26T09:27:38;98804.75;;;8.49;nan
25560;BME280;13450;49.374;8.584;2024-02-26T09:30:03;98810.09;;;8.56;nan
25560;BME280;13450;49.374;8.584;2024-02-26T09:32:29;98808.44;;;8.62;nan
25560;BME280;13450;49.374;8.584;2024-02-26T09:35:00;98816.19;;;8.63;nan
25560;BME280;13450;49.374;8.584;2024-02-26T09:37:27;98814.94;;;8.66;nan
25560;BME280;13450;49.374;8.584;2024-02-26T09:39:55;98810.03;;;8.70;nan
25560;BME280;13450;49.374;8.584;2024-02-26T09:42:21;98814.50;;;8.76;nan
25560;BME280;13450;49.374;8.584;2024-02-26T09:44:51;98814.50;;;8.76;nan
25560;BME280;13450;49.374;8.584;2024-02-26T09:47:18;98819.44;;;8.72;nan
25560;BME280;13450;49.374;8.584;2024-02-26T09:49:46;98827.66;;;8.71;nan
25560;BME280;13450;49.374;8.584;2024-02-26T09:52:14;98834.81;;;8.70;nan
25560;BME280;13450;49.374;8.584;2024-02-26T09:54:41;98828.88;;;8.75;nan
25560;BME280;13450;49.374;8.584;2024-02-26T09:57:09;98832.47;;;8.94;nan
25560;BME280;13450;49.374;8.584;2024-02-26T09:59:43;98825.22;;;9.34;nan
25560;BME280;13450;49.374;8.584;2024-02-26T10:02:14;98824.06;;;9.80;nan
25560;BME280;13450;49.374;8.584;2024-02-26T10:04:40;98817.13;;;10.36;nan
25560;BME280;13450;49.374;8.584;2024-02-26T10:07:11;98815.69;;;10.70;nan
25560;BME280;13450;49.374;8.584;2024-02-26T10:09:36;98816.97;;;10.68;nan
25560;BME280;13450;49.374;8.584;2024-02-26T10:12:03;98814.28;;;10.68;nan
25560;BME280;13450;49.374;8.584;2024-02-26T10:14:29;98817.31;;;10.71;nan
25560;BME280;13450;49.374;8.584;2024-02-26T10:16:55;98818.81;;;10.86;nan
25560;BME280;13450;49.374;8.584;2024-02-26T10:19:28;98821.44;;;10.74;nan
25560;BME280;13450;49.374;8.584;2024-02-26T10:21:58;98825.88;;;10.80;nan
25560;BME280;13450;49.374;8.584;2024-02-26T10:24:24;98832.94;;;10.75;nan
25560;BME280;13450;49.374;8.584;2024-02-26T10:26:51;98833.84;;;10.68;nan
25560;BME280;13450;49.374;8.584;2024-02-26T10:29:18;98831.81;;;10.82;nan
25560;BME280;13450;49.374;8.584;2024-02-26T10:31:43;98832.38;;;11.03;nan
25560;BME280;13450;49.374;8.584;2024-02-26T10:34:08;98831.03;;;11.24;nan
25560;BME280;13450;49.374;8.584;2024-02-26T10:36:34;98838.38;;;11.29;nan
25560;BME280;13450;49.374;8.584;2024-02-26T10:39:05;98841.97;;;11.23;nan
25560;BME280;13450;49.374;8.584;2024-02-26T10:41:33;98841.03;;;11.17;nan
25560;BME280;13450;49.374;8.584;2024-02-26T10:44:01;98834.13;;;11.09;nan
25560;BME280;13450;49.374;8.584;2024-02-26T10:46:27;98832.81;;;11.43;nan
25560;BME280;13450;49.374;8.584;2024-02-26T10:48:53;98830.78;;;11.81;nan
25560;BME280;13450;49.374;8.584;2024-02-26T10:51:29;98831.91;;;12.45;nan
25560;BME280;13450;49.374;8.584;2024-02-26T10:54:01;98837.00;;;13.63;nan
25560;BME280;13450;49.374;8.584;2024-02-26T10:56:33;98836.38;;;14.12;nan
25560;BME280;13450;49.374;8.584;2024-02-26T10:58:59;98851.06;;;14.21;nan
25560;BME280;13450;49.374;8.584;2024-02-26T11:01:27;98851.53;;;14.18;nan
25560;BME280;13450;49.374;8.584;2024-02-26T11:03:55;98861.34;;;14.69;nan
25560;BME280;13450;49.374;8.584;2024-02-26T11:06:21;98859.84;;;14.56;nan
25560;BME280;13450;49.374;8.584;2024-02-26T11:08:50;98866.16;;;14.45;nan
25560;BME280;13450;49.374;8.584;2024-02-26T11:11:18;98866.75;;;13.90;nan
25560;BME280;13450;49.374;8.584;2024-02-26T11:13:48;98872.66;;;14.27;nan
25560;BME280;13450;49.374;8.584;2024-02-26T11:16:18;98874.34;;;15.22;nan
25560;BME280;13450;49.374;8.584;2024-02-26T11:18:43;98870.34;;;15.58;nan
25560;BME280;13450;49.374;8.584;2024-02-26T11:21:13;98870.06;;;15.26;nan
25560;BME280;13450;49.374;8.584;2024-02-26T11:23:40;98871.72;;;14.38;nan
25560;BME280;13450;49.374;8.584;2024-02-26T11:26:09;98880.56;;;13.65;nan
25560;BME280;13450;49.374;8.584;2024-02-26T11:28:37;98873.16;;;13.26;nan
25560;BME280;13450;49.374;8.584;2024-02-26T11:31:06;98865.59;;;12.93;nan
25560;BME280;13450;49.374;8.584;2024-02-26T11:33:33;98866.16;;;12.66;nan
25560;BME280;13450;49.374;8.584;2024-02-26T11:36:01;98871.66;;;12.48;nan
25560;BME280;13450;49.374;8.584;2024-02-26T11:38:28;98869.84;;;12.36;nan
25560;BME280;13450;49.374;8.584;2024-02-26T11:40:58;98870.75;;;12.30;nan
25560;BME280;13450;49.374;8.584;2024-02-26T11:43:49;98871.44;;;12.49;nan
25560;BME280;13450;49.374;8.584;2024-02-26T11:46:31;98875.06;;;12.55;nan
25560;BME280;13450;49.374;8.584;2024-02-26T11:48:58;98875.94;;;12.61;nan
25560;BME280;13450;49.374;8.584;2024-02-26T11:51:31;98878.09;;;12.88;nan
25560;BME280;13450;49.374;8.584;2024-02-26T11:53:57;98873.09;;;13.50;nan
25560;BME280;13450;49.374;8.584;2024-02-26T11:56:24;98873.31;;;13.82;nan
25560;BME280;13450;49.374;8.584;2024-02-26T11:59:10;98877.16;;;13.86;nan
25560;BME280;13450;49.374;8.584;2024-02-26T12:01:39;98876.84;;;13.66;nan
25560;BME280;13450;49.374;8.584;2024-02-26T12:04:06;98879.69;;;13.59;nan
25560;BME280;13450;49.374;8.584;2024-02-26T12:06:41;98878.88;;;13.58;nan
25560;BME280;13450;49.374;8.584;2024-02-26T12:09:07;98876.81;;;13.49;nan
25560;BME280;13450;49.374;8.584;2024-02-26T12:11:33;98883.91;;;13.55;nan
25560;BME280;13450;49.374;8.584;2024-02-26T12:14:03;98886.53;;;13.67;nan
25560;BME280;13450;49.374;8.584;2024-02-26T12:16:38;98889.22;;;13.50;nan
25560;BME280;13450;49.374;8.584;2024-02-26T12:19:05;98895.75;;;13.42;nan
25560;BME280;13450;49.374;8.584;2024-02-26T12:21:33;98891.16;;;13.54;nan
25560;BME280;13450;49.374;8.584;2024-02-26T12:24:13;98901.03;;;13.83;nan
25560;BME280;13450;49.374;8.584;2024-02-26T12:26:40;98894.09;;;14.21;nan
25560;BME280;13450;49.374;8.584;2024-02-26T12:29:06;98896.91;;;14.71;nan
25560;BME280;13450;49.374;8.584;2024-02-26T12:31:32;98899.53;;;15.11;nan
25560;BME280;13450;49.374;8.584;2024-02-26T12:33:58;98897.16;;;15.42;nan
25560;BME280;13450;49.374;8.584;2024-02-26T12:36:24;98899.91;;;16.13;nan
25560;BME280;13450;49.374;8.584;2024-02-26T12:38:50;98906.91;;;17.16;nan
25560;BME280;13450;49.374;8.584;2024-02-26T12:41:16;98901.41;;;18.72;nan
25560;BME280;13450;49.374;8.584;2024-02-26T12:43:44;98907.97;;;20.80;nan
25560;BME280;13450;49.374;8.584;2024-02-26T12:46:10;98895.81;;;22.06;nan
25560;BME280;13450;49.374;8.584;2024-02-26T12:48:37;98900.03;;;23.85;nan
25560;BME280;13450;49.374;8.584;2024-02-26T12:51:04;98896.53;;;25.59;nan
25560;BME280;13450;49.374;8.584;2024-02-26T12:53:34;98904.22;;;27.43;nan
25560;BME280;13450;49.374;8.584;2024-02-26T12:56:00;98915.56;;;27.63;nan
25560;BME280;13450;49.374;8.584;2024-02-26T12:58:26;98909.25;;;27.96;nan
25560;BME280;13450;49.374;8.584;2024-02-26T13:00:56;98921.03;;;28.55;nan
25560;BME280;13450;49.374;8.584;2024-02-26T13:03:22;98915.03;;;30.01;nan
25560;BME280;13450;49.374;8.584;2024-02-26T13:05:48;98927.41;;;29.92;nan
25560;BME280;13450;49.374;8.584;2024-02-26T13:08:19;98923.44;;;30.86;nan
25560;BME280;13450;49.374;8.584;2024-02-26T13:10:45;98924.09;;;29.16;nan
25560;BME280;13450;49.374;8.584;2024-02-26T13:13:11;98914.69;;;29.58;nan
25560;BME280;13450;49.374;8.584;2024-02-26T13:15:36;98921.50;;;31.26;nan
25560;BME280;13450;49.374;8.584;2024-02-26T13:18:09;98927.59;;;30.63;nan
25560;BME280;13450;49.374;8.584;2024-02-26T13:20:40;98932.31;;;30.95;nan
25560;BME280;13450;49.374;8.584;2024-02-26T13:23:11;98933.28;;;29.61;nan
25560;BME280;13450;49.374;8.584;2024-02-26T13:25:39;98930.31;;;28.76;nan
25560;BME280;13450;49.374;8.584;2024-02-26T13:28:17;98939.69;;;27.36;nan